Wilsondale, West Virginia
Current Conditions -  °F | °C
As of 11:15 AM on Thursday 23 Oct 2014 (Local Time) from KSJS Reporting Station
Overcast Overcast  
Wind Chill: 51°   Ceiling: 3500
Heat Index: 51°   Visibility: 10mi
Dew Point: 43°   Wind: 0mph
Humidity: 76%   Direction: NA
Pressure: 30.24"   Gusts: NA
Location:  37.95°N, 82.33°W
Report Text: KSJS 231515Z AUTO 00000KT 10SM SCT018 OVC035 10/06 A3024 RMK AO2 T01030063
Loading
Personal Weather Stations






























Interactive Weather Map
Tropical Storm Tracking
New forecast layout! Learn more

10-Day Weather Forecast

Advertisements
Track Severe Weather on mobile